Latest Weather Observations for Tasman Island

IDT60901

Issued at 8:01 pm EDT Saturday 16 December 2017 (issued every 10 minutes, with the page automatically refreshed every 10 minutes)

About weather observations | Map of Hobart area stations | Latest observations for Hobart area | Other Formats
Station Details ID: 094155 Name: TASMAN ISLAND Lat: -43.24 Lon: 148.00 Height: 240.0 m
Data from the previous 72 hours. | See also: Recent months at Tasman Island
Date/Time
EDT
Temp
°C
App
Temp
°C
Dew
Point
°C
Rel
Hum
%
Delta-T
°C
Wind Press
QNH
hPa
Press
MSL
hPa
Rain since
9am
mm
Dir  Spd
km/h
Gust
km/h
Spd
kts
Gust
kts
16/08:00pm 12.8 8.8 6.8 67 2.9 SSW 17 30 9 16 1014.8 1014.6 0.0
16/07:30pm 12.6 8.1 6.9 68 2.8 SSW 20 33 11 18 1014.3 1014.2 0.0
16/07:00pm 13.1 7.6 6.0 62 3.4 SSW 24 39 13 21 1013.7 1013.6 0.0
16/06:30pm 12.8 7.7 7.7 71 2.5 SSW 24 35 13 19 1013.5 1013.4 0.0
16/06:00pm 13.1 8.9 8.4 73 2.4 SSW 20 37 11 20 1013.4 1013.3 0.0
16/05:30pm 13.3 8.3 9.5 78 2.0 SSW 26 43 14 23 1013.3 1013.2 0.0
16/05:00pm 14.0 9.7 9.4 74 2.4 SSW 22 37 12 20 1013.3 1013.2 0.0
16/04:30pm 15.1 10.0 9.2 68 3.1 SW 26 37 14 20 1013.1 1013.0 0.0
16/04:00pm 14.4 9.2 8.8 69 2.9 SW 26 37 14 20 1012.9 1012.8 0.0
16/03:30pm 14.9 9.7 8.8 67 3.1 SW 26 32 14 17 1012.6 1012.5 0.0
16/03:00pm 14.4 9.2 8.8 69 2.9 SW 26 35 14 19 1012.4 1012.2 0.0
16/02:30pm 12.5 8.8 9.5 82 1.5 SW 19 32 10 17 1012.5 1012.3 0.0
16/02:00pm 12.1 9.6 9.8 86 1.2 SW 13 33 7 18 1012.2 1012.0 0.0
16/01:30pm 12.5 9.7 9.9 84 1.3 SSW 15 37 8 20 1011.7 1011.5 0.0
16/01:00pm 12.4 8.4 10.3 87 1.1 SW 22 39 12 21 1011.4 1011.2 0.0
16/12:30pm 12.1 6.9 10.3 89 0.9 SSW 28 46 15 25 1011.0 1010.8 0.0
16/12:01pm 12.2 7.0 10.4 89 0.9 SSW 28 59 15 32 1010.1 1009.9 0.0
16/12:00pm 12.3 7.6 10.5 89 0.9 SSW 26 59 14 32 1010.2 1010.0 0.0
16/11:50am 13.6 10.5 10.2 80 1.8 SW 17 56 9 30 1009.9 1009.8 0.0
16/11:30am 18.8 17.5 9.3 54 5.1 SSW 6 22 3 12 1009.4 1009.3 0.0
16/11:00am 18.0 14.3 9.6 58 4.5 WNW 19 33 10 18 1009.0 1008.8 0.0
16/10:30am 17.7 15.0 8.8 56 4.7 NW 13 30 7 16 1009.2 1009.1 0.0
16/10:00am 16.9 13.0 8.8 59 4.2 NW 19 32 10 17 1009.0 1008.8 0.0
16/09:30am 16.6 13.4 8.3 58 4.3 WNW 15 33 8 18 1009.0 1008.8 0.0
16/09:00am 16.7 12.2 8.4 58 4.3 WNW 22 32 12 17 1008.9 1008.7 0.0
16/08:30am 16.3 11.7 8.0 58 4.2 WNW 22 30 12 16 1008.7 1008.5 0.0
16/08:00am 15.5 9.6 7.3 58 4.1 NW 28 41 15 22 1008.4 1008.2 0.0
16/07:30am 14.7 9.9 7.3 61 3.7 NW 22 32 12 17 1008.1 1007.9 0.0
16/07:00am 13.7 9.3 7.5 66 3.1 NNW 20 32 11 17 1007.8 1007.6 0.0
16/06:30am 13.7 8.4 6.8 63 3.4 NNW 24 37 13 20 1007.5 1007.3 0.0
16/06:00am 13.5 7.7 6.4 62 3.5 NW 26 37 14 20 1007.5 1007.3 0.0
16/05:30am 13.8 8.0 6.2 60 3.7 NW 26 39 14 21 1007.1 1006.9 0.0
16/05:00am 13.8 9.2 6.4 61 3.6 NW 20 35 11 19 1007.0 1006.8 0.0
16/04:30am 13.6 10.3 6.5 62 3.5 WNW 13 33 7 18 1006.9 1006.7 0.0
16/04:00am 13.3 9.2 8.0 70 2.7 WNW 19 32 10 17 1006.7 1006.5 0.0
16/03:30am 13.3 9.1 7.5 68 2.9 WNW 19 35 10 19 1006.9 1006.7 0.0
16/03:00am 13.3 9.3 8.2 71 2.6 WNW 19 35 10 19 1006.8 1006.6 0.0
16/02:30am 12.8 10.3 9.6 81 1.7 WNW 13 20 7 11 1007.2 1007.0 0.0
16/02:00am 12.6 10.4 9.4 81 1.6 WNW 11 15 6 8 1007.3 1007.1 0.0
16/01:30am 12.6 9.9 8.9 78 1.9 WNW 13 17 7 9 1007.2 1007.0 0.0
16/01:00am 12.5 10.4 9.7 83 1.4 WNW 11 17 6 9 1007.6 1007.4 0.0
16/12:30am 11.9 10.0 10.5 91 0.7 WNW 11 17 6 9 1007.7 1007.5 0.0
16/12:00am 12.0 11.2 11.1 94 0.5 NW 6 7 3 4 1007.8 1007.6 0.0
 
Date/Time
EDT
Temp
°C
App
Temp
°C
Dew
Point
°C
Rel
Hum
%
Delta-T
°C
Wind Press
QNH
hPa
Press
MSL
hPa
Rain since
9am
mm
Dir  Spd
km/h
Gust
km/h
Spd
kts
Gust
kts
15/11:30pm 12.0 11.0 10.9 93 0.6 W 7 9 4 5 1007.9 1007.7 0.0
15/11:00pm 12.0 10.9 10.7 92 0.7 W 7 9 4 5 1007.9 1007.7 0.0
15/10:30pm 12.2 11.7 10.9 92 0.7 WSW 4 7 2 4 1008.1 1007.9 0.0
15/10:00pm 12.4 11.3 10.6 89 0.9 W 7 7 4 4 1008.1 1007.9 0.0
15/09:30pm 13.3 12.4 10.7 84 1.4 W 6 7 3 4 1007.9 1007.7 0.0
15/09:00pm 13.9 13.7 10.5 80 1.8 NW 2 4 1 2 1007.8 1007.6 0.0
15/08:30pm 13.5 13.4 10.9 84 1.4 NE 2 4 1 2 1007.6 1007.4 0.0
15/08:00pm 13.8 13.4 11.0 83 1.5 N 4 7 2 4 1007.7 1007.5 0.0
15/07:30pm 14.9 14.0 10.7 76 2.2 N 6 9 3 5 1007.6 1007.4 0.0
15/07:00pm 13.6 11.5 11.1 85 1.3 NNE 13 17 7 9 1007.4 1007.2 0.0
15/06:30pm 13.6 11.1 11.1 85 1.3 NE 15 20 8 11 1007.2 1007.0 0.0
15/06:00pm 13.7 11.7 11.4 86 1.2 NE 13 19 7 10 1007.3 1007.1 0.0
15/05:30pm 14.3 12.0 11.8 85 1.4 NE 15 22 8 12 1007.4 1007.2 0.0
15/05:00pm 14.0 12.1 11.7 86 1.3 NNE 13 26 7 14 1007.6 1007.4 0.0
15/04:30pm 15.1 12.5 11.9 81 1.8 NNE 17 26 9 14 1007.9 1007.7 0.0
15/04:00pm 14.8 11.5 11.6 81 1.7 NNE 20 33 11 18 1008.0 1007.8 0.0
15/03:30pm 14.6 10.8 9.8 73 2.5 NNE 20 32 11 17 1008.2 1008.0 0.0
15/03:00pm 15.6 11.7 9.5 67 3.2 NNE 20 35 11 19 1008.5 1008.3 0.0
15/02:30pm 15.1 11.5 8.3 64 3.5 NNE 17 30 9 16 1008.9 1008.7 0.0
15/02:00pm 15.2 11.4 7.7 61 3.8 NNE 17 33 9 18 1009.1 1009.0 0.0
15/01:30pm 15.3 12.4 8.3 63 3.6 NNE 13 28 7 15 1009.4 1009.3 0.0
15/01:00pm 15.2 10.7 7.0 58 4.1 NNE 20 32 11 17 1009.7 1009.6 0.0
15/12:30pm 15.0 9.7 6.8 58 4.1 NNE 24 35 13 19 1010.3 1010.1 0.0
15/12:00pm 14.4 9.4 6.3 58 4.0 NNE 22 33 12 18 1010.6 1010.4 0.0
15/11:30am 14.7 10.2 6.0 56 4.2 NNE 19 28 10 15 1010.8 1010.6 0.0
15/11:00am 15.7 12.2 5.6 51 4.9 NNE 13 20 7 11 1010.8 1010.6 0.0
15/10:30am 15.0 12.3 5.8 54 4.5 NNE 9 15 5 8 1010.8 1010.6 0.0
15/10:00am 14.8 12.4 5.3 53 4.6 WNW 7 17 4 9 1011.0 1010.8 0.0
15/09:30am 13.7 9.7 5.1 56 4.1 WNW 15 26 8 14 1011.0 1010.8 0.0
15/09:00am 13.0 9.7 4.4 56 4.0 WNW 11 20 6 11 1011.1 1010.9 0.0
15/08:30am 13.0 9.6 3.9 54 4.2 WNW 11 24 6 13 1011.0 1010.8 0.0
15/08:00am 12.5 9.4 3.5 54 4.1 NW 9 24 5 13 1010.7 1010.5 0.0
15/07:30am 11.8 7.8 3.1 55 3.9 WNW 13 19 7 10 1010.9 1010.7 0.0
15/07:00am 11.8 8.2 3.1 55 3.9 W 11 19 6 10 1010.7 1010.5 0.0
15/06:30am 10.9 6.6 3.0 58 3.5 WNW 15 20 8 11 1010.5 1010.3 0.0
15/06:00am 10.6 6.7 3.2 60 3.3 WNW 13 22 7 12 1010.4 1010.2 0.0
15/05:30am 10.8 7.6 3.1 59 3.4 W 9 24 5 13 1009.5 1009.4 0.0
15/05:00am 10.7 7.5 3.3 60 3.3 WNW 9 28 5 15 1009.7 1009.6 0.0
15/04:30am 10.8 5.7 3.1 59 3.4 WNW 19 41 10 22 1009.1 1009.0 0.0
15/04:00am 10.8 8.0 3.1 59 3.4 WNW 7 24 4 13 1009.2 1009.1 0.0
15/03:30am 10.9 8.1 3.0 58 3.5 SSW 7 28 4 15 1009.2 1009.1 0.0
15/03:00am 11.3 7.4 3.3 58 3.6 NW 13 32 7 17 1009.2 1009.1 0.0
15/02:30am 11.3 8.3 4.1 61 3.3 N 9 24 5 13 1009.1 1009.0 0.0
15/02:00am 11.7 8.8 4.7 62 3.2 W 9 30 5 16 1009.1 1009.0 0.0
15/01:30am 11.8 9.4 5.4 65 3.0 WNW 7 32 4 17 1009.0 1008.8 0.0
15/01:00am 11.9 9.1 5.3 64 3.1 SW 9 26 5 14 1008.7 1008.5 0.0
15/12:30am 12.1 9.2 4.8 61 3.4 ENE 9 30 5 16 1008.4 1008.2 0.0
15/12:00am 12.4 9.5 4.9 60 3.5 S 9 32 5 17 1008.1 1007.9 0.0
 
Date/Time
EDT
Temp
°C
App
Temp
°C
Dew
Point
°C
Rel
Hum
%
Delta-T
°C
Wind Press
QNH
hPa
Press
MSL
hPa
Rain since
9am
mm
Dir  Spd
km/h
Gust
km/h
Spd
kts
Gust
kts
14/11:30pm 12.4 9.8 6.0 65 3.1 NE 9 33 5 18 1008.0 1007.8 0.0
14/11:00pm 12.8 9.8 6.2 64 3.2 W 11 35 6 19 1007.4 1007.2 0.0
14/10:30pm 13.1 9.6 5.5 60 3.6 SW 13 43 7 23 1006.4 1006.2 0.0
14/10:00pm 13.0 9.1 7.0 67 2.9 W 17 41 9 22 1006.3 1006.1 0.0
14/09:30pm 12.6 7.9 9.2 80 1.7 WSW 24 54 13 29 1005.6 1005.5 0.0
14/09:00pm 11.8 5.6 9.2 84 1.3 SW 32 67 17 36 1004.5 1004.3 0.0
14/08:30pm 11.7 3.6 10.1 90 0.8 SW 43 67 23 36 1004.0 1003.8 0.0
14/08:14pm 12.3 7.5 10.2 87 1.1 SW 26 61 14 33 1003.5 1003.3 0.0
14/08:00pm 16.1 13.9 6.3 52 4.9 NNE 7 28 4 15 1003.3 1003.1 0.0
14/07:30pm 16.3 12.6 4.7 46 5.5 WNW 13 41 7 22 1002.5 1002.3 0.0
14/07:00pm 16.1 13.0 5.4 49 5.2 WNW 11 35 6 19 1001.9 1001.6 0.0
14/06:30pm 16.6 13.2 6.1 50 5.2 NNW 13 39 7 21 1000.9 1000.7 0.0
14/06:00pm 17.2 12.3 6.7 50 5.3 W 22 44 12 24 1000.7 1000.5 0.0
14/05:30pm 16.3 13.3 6.2 51 5.0 N 11 35 6 19 1000.0 999.8 0.0
14/05:00pm 15.9 12.6 6.6 54 4.6 NNW 13 35 7 19 999.5 999.3 0.0
14/04:30pm 15.9 12.7 6.9 55 4.5 NNW 13 48 7 26 998.7 998.5 0.0
14/04:00pm 15.4 11.9 8.6 64 3.5 WSW 17 48 9 26 998.8 998.6 0.0
14/03:30pm 15.2 12.5 8.9 66 3.3 NW 13 46 7 25 998.1 997.8 0.0
14/03:06pm 15.5 10.3 10.1 70 2.9 SW 28 57 15 31 998.7 998.5 0.0
14/03:00pm 16.2 11.6 11.2 72 2.7 SW 26 48 14 26 998.7 998.5 0.0
14/02:30pm 16.1 11.1 9.5 65 3.5 WSW 26 57 14 31 998.7 998.5 0.0
14/02:00pm 16.4 10.6 10.9 70 3.0 WSW 32 52 17 28 998.9 998.7 0.0
14/01:54pm 16.3 11.3 11.0 71 2.9 WSW 28 61 15 33 999.0 998.8 0.0
14/01:30pm 15.9 11.4 11.3 74 2.5 SW 26 48 14 26 999.3 999.1 0.0
14/01:19pm 15.0 8.2 10.8 76 2.2 SW 37 57 20 31 999.3 999.1 0.0
14/01:00pm 14.2 6.6 10.4 78 2.0 SW 41 57 22 31 999.5 999.3 0.0
14/12:30pm 13.9 8.7 10.3 79 1.9 SSW 28 50 15 27 999.6 999.4 0.0
14/12:00pm 13.3 7.5 11.5 89 1.0 SW 33 63 18 34 999.5 999.3 0.0
14/11:44am 13.4 8.6 11.6 89 1.0 SW 28 46 15 25 999.4 999.2 0.0
14/11:30am 13.9 10.4 12.1 89 1.0 SSW 22 43 12 23 999.4 999.2 0.0
14/11:00am 13.0 8.4 12.2 95 0.4 SW 28 46 15 25 999.3 999.1 0.0
14/10:59am 13.1 8.5 12.3 95 0.4 SSW 28 56 15 30 999.3 999.1 0.0
14/10:30am 14.1 12.0 13.6 97 0.3 SW 17 35 9 19 999.2 999.0 0.0
14/10:00am 13.7 9.0 13.2 97 0.3 SW 30 43 16 23 999.1 998.9 0.0
14/09:30am 14.1 9.8 13.3 95 0.4 SW 28 43 15 23 999.2 999.0 0.0
14/09:00am 15.9 12.7 13.2 84 1.5 SSW 22 37 12 20 999.1 998.9 0.0
14/08:30am 19.3 17.2 11.3 60 4.4 W 13 20 7 11 998.3 998.0 0.0
14/08:00am 19.4 18.1 11.2 59 4.6 W 9 15 5 8 998.1 997.8 0.0
14/07:30am 19.0 17.7 11.1 60 4.4 WNW 9 17 5 9 998.0 997.7 0.0
14/07:00am 19.1 17.5 10.1 56 4.9 WNW 9 15 5 8 998.2 997.9 0.0
14/06:30am 18.9 17.2 9.9 56 4.8 NW 9 17 5 9 997.7 997.4 0.0
14/06:00am 18.8 15.3 10.1 57 4.7 NNE 19 24 10 13 997.2 996.9 0.0
14/05:30am 18.2 14.5 10.1 59 4.4 NNE 20 30 11 16 997.3 997.0 0.0
14/05:00am 17.4 13.9 10.8 65 3.6 NNE 20 24 11 13 997.6 997.3 0.0
14/04:30am 18.4 14.9 10.3 59 4.4 N 19 24 10 13 998.2 997.9 0.0
14/04:00am 19.4 15.8 9.9 54 5.2 WNW 19 26 10 14 999.3 999.1 0.0
14/03:30am 18.9 15.7 9.9 56 4.8 W 17 20 9 11 999.6 999.4 0.0
14/03:00am 17.5 15.1 10.1 62 4.0 W 13 26 7 14 1000.2 1000.0 0.0
14/02:30am 18.2 15.6 9.5 57 4.6 SW 13 26 7 14 1000.7 1000.5 0.0
14/02:00am 19.6 16.5 8.9 50 5.7 SSW 15 24 8 13 1000.6 1000.4 0.0
14/01:30am 24.4 17.7 5.7 30 9.6 NW 30 46 16 25 1000.1 999.9 0.0
14/01:00am 24.6 15.5 5.9 30 9.7 NW 43 59 23 32 1000.1 999.9 0.0
14/12:30am 24.4 13.4 5.2 29 9.8 NW 52 74 28 40 1000.1 999.9 0.0
14/12:04am 22.7 13.4 7.7 38 7.9 NNW 46 74 25 40 1000.3 1000.1 0.0
14/12:00am 23.0 13.3 7.5 37 8.2 NNW 48 65 26 35 1000.3 1000.1 0.0
 
Date/Time
EDT
Temp
°C
App
Temp
°C
Dew
Point
°C
Rel
Hum
%
Delta-T
°C
Wind Press
QNH
hPa
Press
MSL
hPa
Rain since
9am
mm
Dir  Spd
km/h
Gust
km/h
Spd
kts
Gust
kts
13/11:30pm 22.5 12.6 8.2 40 7.6 NNW 50 70 27 38 1000.7 1000.5 0.0
13/11:01pm 19.7 12.0 12.0 61 4.3 N 44 63 24 34 1000.9 1000.7 0.0
13/11:00pm 20.0 11.8 11.8 59 4.6 N 46 63 25 34 1000.8 1000.6 0.0
13/10:30pm 19.8 9.9 12.3 62 4.2 N 56 67 30 36 1000.8 1000.6 0.0
13/10:00pm 18.2 9.2 13.9 76 2.5 N 54 67 29 36 1001.2 1001.0 0.0
13/09:30pm 17.9 9.0 14.2 79 2.1 N 54 65 29 35 1001.2 1001.0 0.0
13/09:26pm 18.3 9.6 13.6 74 2.7 N 52 65 28 35 1001.2 1001.0 0.0
13/09:00pm 17.4 12.5 14.3 82 1.8 NNE 33 54 18 29 1001.5 1001.2 0.0
13/08:56pm 17.0 12.2 14.6 86 1.4 NNE 33 54 18 29 1001.5 1001.2 0.0
13/08:30pm 20.1 13.3 11.8 59 4.7 N 39 54 21 29 1002.3 1002.1 0.0

Latest Capital City Observations: Canberra | Sydney | Melbourne | Brisbane | Adelaide | Perth | Hobart | Darwin

Other Formats:

Comma delimited format used in spreadsheet applications
http://www.bom.gov.au/fwo/IDT60901/IDT60901.95986.axf

JavaScript Object Notation format (JSON) in row-major order
http://www.bom.gov.au/fwo/IDT60901/IDT60901.95986.json